Date,TemperatureHighF,TemperatureAvgF,TemperatureLowF,DewpointHighF,DewpointAvgF,DewpointLowF,HumidityHigh,HumidityAvg,HumidityLow,PressureMaxIn,PressureMinIn,WindSpeedMaxMPH,WindSpeedAvgMPH,GustSpeedMaxMPH,PrecipitationSumIn
2012-1-1,54.0,41.4,29.0,47.0,34.4,21.0,97,79,39,30.14,29.83,11,2,18,0.00
2012-1-2,43.0,33.2,23.0,27.0,15.2,8.0,86,48,33,30.07,29.94,13,4,22,0.00
2012-1-3,26.0,23.4,22.0,13.0,9.4,6.0,67,54,43,30.32,30.06,9,3,22,0.00
2012-1-4,44.0,31.2,20.0,28.0,12.4,7.0,69,48,21,30.33,30.02,7,2,14,0.00
2012-1-5,44.0,40.2,37.0,26.0,23.7,20.0,62,52,44,30.04,29.98,6,2,12,0.00
2012-1-6,64.0,51.0,42.0,30.0,25.8,23.0,51,39,24,30.02,29.90,14,3,15,0.00
2012-1-7,64.0,53.6,46.0,47.0,39.5,24.0,87,60,36,30.07,29.86,10,2,13,0.00
2012-1-8,57.0,43.3,31.0,35.0,31.0,26.0,94,65,32,30.27,30.06,3,1,0,0.00
2012-1-9,44.0,38.4,35.0,35.0,32.2,28.0,95,80,60,30.27,30.05,1,0,0,0.00
2012-1-10,56.0,40.5,29.0,35.0,31.2,28.0,98,73,38,30.12,30.00,5,1,0,0.00
2012-1-11,41.0,37.8,31.0,40.0,35.9,28.0,98,93,81,30.02,29.54,3,0,0,0.00
2012-1-12,58.0,48.4,40.0,47.0,42.7,33.0,98,82,64,29.57,29.40,8,2,21,0.00
2012-1-13,39.0,30.4,28.0,34.0,17.6,14.0,81,59,50,30.03,29.47,11,5,27,0.00
2012-1-14,40.0,31.6,27.0,27.0,18.9,14.0,89,60,34,30.16,30.03,8,2,14,0.00
2012-1-15,38.0,31.1,23.0,27.0,20.7,14.0,94,68,39,30.55,30.13,6,1,0,0.00
2012-1-16,44.0,30.9,19.0,35.0,23.9,16.0,92,77,50,30.56,30.23,2,0,0,0.00
2012-1-17,60.0,49.9,40.0,52.0,40.3,31.0,96,71,50,30.24,29.80,5,1,13,0.00
2012-1-18,54.0,37.5,23.0,48.0,23.8,17.0,81,58,47,30.16,29.81,8,3,17,0.00
2012-1-19,44.0,29.8,16.0,26.0,19.6,14.0,92,68,39,30.21,30.01,4,0,0,0.00
2012-1-20,48.0,40.3,33.0,33.0,27.0,23.0,94,61,44,30.18,30.02,7,1,0,0.00
2012-1-21,48.0,38.5,32.0,45.0,37.1,31.0,97,95,89,30.19,29.86,2,0,0,0.00
2012-1-22,38.0,34.2,31.0,37.0,32.1,29.0,97,92,82,30.40,30.19,2,0,0,0.00
2012-1-23,40.0,36.2,33.0,39.0,35.4,32.0,98,98,97,30.31,29.95,1,0,0,0.00
2012-2-6,52.0,41.9,33.0,39.0,35.3,31.0,96,79,59,30.28,30.10,4,1,0,0.00
2012-2-7,59.0,43.5,35.0,33.0,30.5,28.0,80,62,32,30.19,30.09,5,1,0,0.00
2012-2-8,43.0,36.1,28.0,37.0,30.5,26.0,92,80,63,30.22,30.11,7,1,0,0.00
2012-2-9,46.0,37.3,31.0,28.0,24.3,22.0,76,60,39,30.30,30.18,7,2,14,0.00
2012-2-10,47.0,36.9,28.0,35.0,28.3,23.0,83,72,54,30.21,29.89,2,0,0,0.00
2012-2-11,40.0,31.5,19.0,36.0,19.5,1.0,86,62,43,30.08,29.77,12,3,23,0.00
2012-2-12,38.0,26.4,18.0,14.0,8.4,1.0,59,46,32,30.24,30.08,9,4,25,0.00
2012-2-13,48.0,35.5,26.0,21.0,16.8,14.0,65,48,25,30.27,30.08,11,2,15,0.00
2012-2-14,49.0,41.6,34.0,40.0,30.0,21.0,87,64,45,30.09,29.95,3,0,0,0.00
2012-2-15,62.0,47.9,35.0,39.0,32.7,29.0,81,58,31,30.27,30.05,6,1,0,0.00
2012-2-16,52.0,45.5,42.0,46.0,40.7,32.0,97,84,55,30.24,30.00,4,0,0,0.00
2012-2-17,57.0,49.6,37.0,42.0,32.0,24.0,72,52,30,30.12,30.02,8,2,0,0.00
2012-2-18,64.0,47.9,33.0,34.0,28.2,21.0,86,52,23,30.11,29.93,8,1,0,0.00
2012-2-19,48.0,37.5,32.0,33.0,30.5,28.0,96,79,48,30.01,29.81,2,0,0,0.00
2012-2-20,52.0,36.0,26.0,32.0,28.7,25.0,97,78,37,30.34,30.00,2,0,0,0.00
2012-2-21,55.0,36.3,23.0,36.0,29.1,21.0,95,78,45,30.34,29.93,4,0,0,0.00
2012-2-22,62.0,47.6,34.0,46.0,37.7,29.0,94,71,29,29.93,29.55,8,2,18,0.00
2012-2-23,71.0,54.5,42.0,51.0,45.4,39.0,91,74,36,29.62,29.48,5,2,13,0.00
2012-2-24,73.0,53.4,40.0,59.0,43.3,21.0,98,72,36,29.81,29.39,17,3,25,0.00
2012-2-25,41.0,37.2,33.0,27.0,17.0,12.0,64,44,32,30.34,29.81,18,5,21,0.00
2012-2-26,55.0,38.1,27.0,24.0,19.4,15.0,76,49,25,30.48,30.34,8,1,0,0.00
2012-2-27,64.0,44.7,25.0,39.0,29.7,22.0,89,60,33,30.43,30.24,6,1,0,0.00
2012-2-28,68.0,51.3,35.0,38.0,28.5,20.0,81,46,17,30.42,30.24,3,1,0,0.00
2012-2-29,71.0,52.4,41.0,58.0,45.6,30.0,97,79,59,30.25,29.70,11,1,15,0.00
2012-3-8,70.0,62.3,56.0,54.0,50.2,47.0,93,67,46,30.20,30.06,8,2,15,0.00
2012-3-9,57.0,50.1,42.0,54.0,31.8,19.0,95,53,28,30.36,30.04,10,3,17,0.00
2012-3-10,59.0,43.3,32.0,26.0,20.5,17.0,67,43,21,30.51,30.35,3,1,0,0.00
2012-3-11,68.0,46.6,29.0,34.0,27.9,-99.9,85,55,26,30.56,30.37,5,0,0,0.00
2012-3-12,75.0,54.6,35.0,53.0,41.7,30.0,86,64,40,30.41,30.16,7,1,0,0.00
2012-3-13,79.0,65.9,55.0,56.0,50.9,46.0,84,62,33,30.16,29.99,8,2,13,0.00
2012-3-14,83.0,66.5,53.0,55.0,48.7,36.0,87,57,19,30.20,30.08,4,1,0,0.00
2012-3-15,66.0,59.8,53.0,54.0,49.8,46.0,82,70,56,30.24,30.11,12,2,13,0.00
2012-3-16,74.0,62.9,55.0,57.0,52.9,50.0,84,71,49,30.18,30.07,5,1,0,0.00
2012-3-17,76.0,64.0,55.0,58.0,54.0,52.0,89,72,47,30.23,30.13,3,0,0,0.00
2012-3-18,69.0,60.8,54.0,61.0,57.3,53.0,97,89,73,30.28,30.16,1,0,0,0.00
2012-3-19,82.0,63.7,53.0,60.0,55.4,52.0,98,78,41,30.24,30.05,5,0,0,0.00
2012-3-20,82.0,61.9,51.0,62.0,55.2,-99.9,98,83,49,30.23,30.07,4,0,0,0.00
2012-3-21,75.0,62.4,53.0,62.0,58.0,52.0,99,87,62,30.29,30.13,3,0,0,0.00
2012-3-22,83.0,66.2,53.0,62.0,55.9,-99.9,98,74,41,30.21,30.04,7,-6,0,0.00
2012-3-23,83.0,68.8,57.0,61.0,56.9,53.0,92,69,38,30.08,29.87,6,1,0,0.00
2012-3-24,72.0,60.8,55.0,62.0,57.9,54.0,98,91,61,29.92,29.73,3,0,0,0.00
2012-3-25,59.0,55.9,53.0,57.0,54.6,52.0,98,96,85,29.83,29.69,2,0,0,0.00
2012-3-26,69.0,60.5,51.0,56.0,42.0,21.0,96,54,19,30.13,29.82,9,2,14,0.00
2012-3-27,65.0,48.1,32.0,36.0,29.9,24.0,89,53,27,30.32,30.13,4,0,0,0.00
2012-3-28,82.0,61.5,38.0,54.0,44.9,34.0,89,58,32,30.20,29.74,12,2,19,0.00
2012-8-4,80.0,78.1,77.0,71.0,70.5,70.0,80,78,75,30.11,30.09,0,0,0,0.00
2012-8-5,89.0,78.4,72.0,76.0,72.7,70.0,96,84,57,30.12,30.02,5,2,0,0.00
2012-8-6,79.0,75.2,70.0,72.0,70.9,68.0,95,86,79,30.06,29.97,2,0,0,0.00
2012-8-7,88.0,80.5,70.0,72.0,69.8,67.0,95,72,50,29.98,29.88,1,0,0,0.00
2012-8-8,92.0,78.7,72.0,71.0,68.8,65.0,94,75,41,29.96,29.87,0,0,0,0.00
2012-8-9,86.0,75.9,69.0,71.0,69.1,67.0,95,81,60,29.92,29.78,4,1,0,0.00
2012-8-10,87.0,75.6,68.0,70.0,67.9,67.0,97,79,53,29.78,29.69,2,0,0,0.00
2012-8-11,85.0,75.2,70.0,64.0,57.9,-99.9,76,61,46,29.90,29.81,8,2,0,0.00
2012-8-12,85.0,74.3,60.0,62.0,58.7,56.0,89,61,40,30.00,29.92,2,0,0,0.00
2012-8-13,87.0,74.3,60.0,65.0,61.7,57.0,90,67,48,30.04,29.90,1,0,0,0.00
2012-8-14,90.0,78.0,66.0,67.0,65.7,65.0,95,69,46,29.91,29.78,4,0,0,0.00
2012-8-15,80.0,72.2,68.0,67.0,65.0,63.0,88,79,62,29.93,29.84,2,1,0,0.00
2012-8-16,88.0,88.0,88.0,56.0,55.7,54.0,34,34,32,29.91,29.90,1,1,0,0.00
2012-8-17,88.0,75.2,65.0,64.0,62.5,61.0,86,67,44,29.88,29.81,5,2,0,0.00
2012-8-18,87.0,74.5,67.0,64.0,61.1,55.0,86,66,34,29.90,29.80,3,1,0,0.00
2012-8-19,72.0,67.5,64.0,65.0,63.1,62.0,97,87,72,29.90,29.84,1,0,0,0.00
2012-8-20,69.0,66.5,64.0,63.0,62.7,62.0,95,87,80,29.89,29.85,1,0,0,0.00
2012-9-11,65.0,63.8,63.0,56.0,55.4,55.0,76,74,72,30.24,30.23,0,0,0,0.00
2012-9-12,82.0,71.0,51.0,60.0,56.1,50.0,97,63,44,30.33,30.23,2,0,0,0.00
2012-9-13,82.0,66.8,51.0,58.0,51.6,47.0,96,63,32,30.36,30.22,3,0,0,0.00
2012-9-14,60.0,56.4,53.0,55.0,52.6,50.0,91,87,83,30.26,30.25,1,0,0,0.00
2012-9-16,66.0,64.3,62.0,59.0,58.3,57.0,85,82,79,30.12,30.06,0,0,0,0.00
2012-9-17,67.0,64.1,61.0,64.0,62.3,60.0,98,95,85,30.07,29.92,1,0,0,0.00
2012-9-18,70.0,67.6,65.0,70.0,66.5,61.0,99,96,80,29.80,29.60,3,0,0,0.00
2012-9-19,64.0,56.7,52.0,54.0,52.5,51.0,97,87,66,30.09,29.89,0,0,0,0.00
2012-9-20,76.0,72.0,63.0,62.0,60.1,58.0,87,67,58,30.08,30.00,1,0,0,0.00
2012-9-21,82.0,76.2,70.0,61.0,60.1,58.0,72,58,44,30.02,29.91,5,3,0,0.00
2012-9-22,82.0,73.4,62.0,61.0,55.7,43.0,92,56,41,29.96,29.80,6,2,13,0.00
2012-9-23,71.0,64.3,51.0,42.0,36.8,32.0,70,39,24,30.14,30.04,3,1,0,0.00
2012-9-24,43.0,42.5,42.0,39.0,38.5,38.0,87,87,85,30.24,30.20,1,1,0,0.00
2012-9-25,42.0,42.0,42.0,40.0,40.0,40.0,94,94,94,30.19,30.19,0,0,0,0.00
2012-9-26,77.0,64.7,56.0,63.0,57.9,54.0,93,81,62,30.15,30.08,1,0,0,0.00
2012-9-27,66.0,65.3,65.0,60.0,60.0,60.0,83,83,82,30.05,30.05,1,1,0,0.00
2012-9-28,74.0,68.8,65.0,65.0,62.0,60.0,90,79,65,30.05,29.94,2,0,0,0.00
2012-9-29,67.0,62.6,59.0,61.0,59.0,56.0,96,88,78,29.97,29.85,2,0,0,0.00
2012-9-30,47.0,46.8,46.0,46.0,45.8,45.0,96,96,96,29.91,29.91,0,0,0,0.00
2012-10-7,50.0,45.8,42.0,49.0,44.4,41.0,97,95,92,30.18,30.07,1,0,0,0.00
2012-10-8,46.0,42.7,40.0,44.0,41.1,39.0,98,95,90,30.28,30.17,3,0,0,0.00
2012-10-9,56.0,49.9,45.0,51.0,47.3,44.0,97,91,82,30.19,30.07,0,0,0,0.00
2012-10-10,55.0,51.3,48.0,46.0,43.0,39.0,91,75,57,30.13,30.03,3,2,0,0.00
2012-10-11,67.0,50.6,39.0,45.0,40.6,35.0,90,71,43,30.28,30.13,1,0,0,0.00
2012-10-12,70.0,61.8,49.0,41.0,39.5,37.0,73,47,32,30.22,30.18,7,2,0,0.00
2012-10-13,63.0,47.9,37.0,43.0,39.9,35.0,95,76,44,30.48,30.33,1,0,0,0.00
2012-10-14,70.0,67.9,67.0,56.0,54.9,53.0,68,63,59,30.15,30.03,2,1,0,0.00
2012-10-15,72.0,65.3,61.0,62.0,59.1,54.0,98,83,53,29.82,29.69,4,1,0,0.00
2012-10-16,50.0,49.2,49.0,40.0,40.0,40.0,71,71,69,29.87,29.87,0,0,0,0.00
2012-10-17,71.0,57.2,39.0,49.0,44.1,37.0,92,65,44,29.98,29.85,4,1,0,0.00
2012-10-18,60.0,59.4,58.0,55.0,54.5,54.0,86,85,84,29.84,29.84,0,0,0,0.00
2012-10-19,71.0,58.6,46.0,47.0,42.1,33.0,96,60,25,29.75,29.61,2,1,0,0.00
2012-10-20,61.0,54.2,46.0,42.0,39.3,37.0,80,58,45,29.97,29.80,5,1,0,0.00
2012-10-21,66.0,63.0,46.0,41.0,37.8,36.0,75,41,33,30.11,29.97,2,1,0,0.00
2012-10-22,77.0,59.3,41.0,52.0,45.6,38.0,91,64,38,30.24,30.10,2,0,0,0.00
2012-10-23,81.0,65.1,50.0,53.0,50.8,47.0,90,64,36,30.16,30.03,4,1,0,0.00
2012-10-24,82.0,71.8,57.0,55.0,53.1,51.0,80,54,34,30.14,30.03,6,2,0,0.00
2012-10-25,81.0,66.1,53.0,55.0,51.6,47.0,82,63,37,30.14,30.05,3,0,0,0.00
2012-10-26,69.0,60.8,55.0,60.0,55.3,52.0,93,83,72,30.11,29.98,1,0,0,0.00
2012-10-27,67.0,62.0,58.0,59.0,56.2,54.0,97,81,71,29.91,29.78,2,0,0,0.00
2012-10-28,61.0,58.9,56.0,50.0,48.1,47.0,79,67,61,29.73,29.64,5,1,0,0.00
2012-10-29,43.0,41.8,40.0,36.0,34.1,31.0,83,74,65,29.63,29.21,14,5,26,0.00
2012-10-30,43.0,40.8,37.0,32.0,30.0,28.0,76,66,61,29.53,29.18,14,5,24,0.00
2012-10-31,45.0,43.5,42.0,34.0,33.5,31.0,70,67,66,29.73,29.53,9,4,14,0.00
2012-11-1,49.0,46.2,42.0,36.0,34.1,32.0,70,63,57,29.80,29.74,9,3,12,0.00
2012-11-2,55.0,49.2,46.0,31.0,27.8,24.0,52,44,31,29.94,29.80,8,2,12,0.00
2012-11-18,55.0,48.5,39.0,39.0,34.8,30.0,73,59,50,30.56,30.44,1,0,0,0.00
2012-11-19,39.0,37.1,36.0,36.0,35.0,34.0,95,92,89,30.25,30.22,1,0,0,0.00
2012-11-20,48.0,38.7,35.0,41.0,36.1,34.0,95,91,77,30.22,30.09,1,0,0,0.00
2012-11-21,56.0,43.3,32.0,40.0,33.0,30.0,92,68,47,30.22,30.15,1,0,0,0.00
2012-11-22,56.0,37.1,30.0,35.0,29.7,27.0,89,76,45,30.29,30.17,2,1,0,0.00
2012-11-23,62.0,52.5,35.0,43.0,36.0,28.0,78,54,42,30.17,29.85,8,3,14,0.00
2012-11-24,40.0,34.7,32.0,22.0,19.7,17.0,60,54,45,30.12,30.01,8,3,17,0.00
2012-11-25,54.0,42.8,28.0,20.0,17.7,15.0,67,40,22,30.13,29.96,5,2,0,0.00
2012-11-26,55.0,48.0,39.0,31.0,23.9,17.0,51,39,33,30.16,30.03,6,2,0,0.00
2012-11-27,49.0,44.8,36.0,42.0,38.3,33.0,90,78,66,30.22,30.09,3,1,0,0.00
2012-11-28,47.0,40.1,36.0,27.0,25.2,22.0,65,55,43,30.38,30.30,5,2,0,0.00
2012-11-29,56.0,44.2,26.0,27.0,23.9,20.0,85,49,24,30.47,30.34,2,1,0,0.00
2012-11-30,63.0,44.5,35.0,33.0,30.6,28.0,76,61,30,30.37,30.27,3,1,0,0.00
2012-12-1,58.0,49.1,37.0,43.0,39.0,34.0,88,68,56,30.41,30.31,1,0,0,0.00
2012-12-2,69.0,53.4,36.0,48.0,42.2,34.0,94,70,45,30.35,30.17,6,1,0,0.00
2012-12-3,74.0,61.3,54.0,55.0,51.5,49.0,86,71,52,30.24,30.16,5,1,0,0.00
2012-12-4,72.0,59.8,44.0,52.0,48.7,43.0,98,69,47,30.25,30.10,6,1,0,0.00
2012-12-5,55.0,50.5,47.0,39.0,30.1,27.0,54,45,38,30.20,30.16,2,0,0,0.00
2012-12-6,44.0,30.7,26.0,31.0,17.2,-99.9,91,74,60,30.35,30.24,2,0,0,0.00
2012-12-7,50.0,42.6,38.0,43.0,39.0,35.0,95,87,76,30.16,30.00,2,0,0,0.00
2012-12-8,66.0,44.7,38.0,51.0,41.9,37.0,97,91,58,30.01,29.92,3,1,0,0.00
2012-12-9,65.0,50.3,43.0,54.0,47.6,42.0,96,90,67,30.09,29.98,2,0,0,0.00
2012-12-10,62.0,53.9,51.0,57.0,52.1,50.0,98,95,77,29.88,29.60,4,0,0,0.00
2012-12-11,53.0,41.1,34.0,50.0,30.5,26.0,88,66,56,30.20,29.66,6,2,12,0.00
2012-12-12,44.0,37.8,33.0,32.0,29.3,26.0,81,71,59,30.37,30.20,2,0,0,0.00
2012-12-13,50.0,34.2,25.0,29.0,24.0,20.0,91,69,32,30.46,30.36,2,0,0,0.00
2012-12-14,60.0,37.0,24.0,31.0,23.9,19.0,84,62,28,30.37,30.23,7,1,0,0.00
2012-12-15,57.0,42.4,33.0,35.0,29.0,24.0,76,60,37,30.26,30.06,3,0,0,0.00
2012-12-16,53.0,43.2,39.0,51.0,41.2,34.0,98,93,66,30.06,29.83,2,0,0,0.00
2012-12-17,55.0,50.5,46.0,52.0,48.8,45.0,99,94,87,29.87,29.58,4,0,0,0.00
2012-12-18,52.0,47.2,40.0,47.0,39.1,32.0,89,74,57,29.86,29.58,7,2,15,0.00
2012-12-19,62.0,49.5,39.0,37.0,33.6,31.0,82,56,33,30.14,29.83,9,2,14,0.00
2012-12-20,43.0,39.1,36.0,39.0,35.3,32.0,97,86,71,30.17,29.47,5,0,0,0.00
2012-12-21,44.0,37.5,34.0,42.0,26.1,21.0,98,63,54,29.64,29.47,15,5,26,0.00
2012-12-22,42.0,36.5,32.0,22.0,19.5,16.0,62,50,39,30.10,29.92,13,4,25,0.00
2012-12-23,55.0,41.9,30.0,34.0,23.5,18.0,65,49,32,30.11,29.94,10,2,14,0.00
2012-12-24,45.0,42.0,40.0,40.0,38.1,34.0,96,86,67,30.00,29.94,3,0,0,0.00
2012-12-25,44.0,41.5,41.0,41.0,38.7,38.0,91,90,89,30.14,30.10,2,0,0,0.00
2012-12-26,41.0,34.8,32.0,38.0,33.4,31.0,97,95,85,30.12,29.52,6,1,14,0.00
2012-12-27,39.0,34.9,30.0,34.0,26.5,23.0,81,71,63,30.10,29.58,10,3,22,0.00
2012-12-28,39.0,33.1,28.0,30.0,26.7,23.0,85,77,65,30.17,29.98,5,1,0,0.00
2012-12-29,46.0,36.6,32.0,39.0,30.7,24.0,96,80,61,29.98,29.65,11,2,19,0.00
2012-12-30,40.0,33.5,30.0,24.0,20.0,18.0,65,57,45,30.38,29.97,14,4,19,0.00
2012-12-31,44.0,36.4,28.0,23.0,20.4,17.0,73,54,34,30.37,30.07,6,2,0,0.00
2013-1-1,50.0,45.1,40.0,43.0,33.2,18.0,90,65,35,30.08,29.88,6,2,0,0.00